Tapachula International Airport
MMTP : now visible

Airfield :











YOU CAN JOIN US ON...

 
LOGIN :

Register | Disclaimer

   EN    FR    IT 

 









Legend :    VFR   Marginal VFR   IFR   Intensive IFR   Very Intensive IFR
Visi :
Ceiling :
>= 8 km
>= 3000ft
5 to 8 km
1000 to 3000 ft
1500m to 5 km
500 to 1000 ft
800 to 1500m
200 to 500 ft
< 800m
< 200 ft
Symbols :   Thunderstorms  Fog  Heavy snow  Heavy precipitations  Wind > 20 kt






- Airport Elevation : 97 ft
- IATA code : TAP


MMTP - Tapachula International

CURRENT METAR :
  • 211146Z 10003KT 10SM FEW100 SCT200 23/23 A2986 RMK SLP132 52002 900 8/061 HZY

EXPIRED METARs :
  • 211041Z 05002KT 10SM SCT100 SCT200 23/23 A2983 RMK 8/063 HZY
  • 210945Z 08002KT 10SM SCT100 BKN200 24/24 A2983 RMK 8/063 HZY

TAF TAF MMTP
Valid from the 21 at 06:00 until the 22 at 12:00 UTC


210506Z 2106/2212 02004KT P6SM SCT030 BKN090
TEMPO 2106/2110 5SM -RA
FM211800 15008KT P6SM SCT025 SCT100 BKN230
BECMG 2205/2207 02005KT



MET'MAP, your aeronautical weather chart ! - Copyright ORBIFLY December 2007 - Disclaimer

ORBIFLY MET'MAP TEAM :

Programming & Development : Alexandra Zaïnal
Concept & Development : Baudouin d'Aumeries
Co-Development & Prog : Marc-Olivier Méhu
Technical & hardware support : Manuel Goepfert

Contact : metmap@orbifly.com




SOURCES & CREDITS :

   NOAA       Earth
Advisory